Time;durP1;ratioP1;P1;durP2;ratioP2;P2;SDS_P1;SDS_P2;PMS_P1;PMS_P2;Temp;Humidity;BMP_temperature;BMP_pressure;BME280_temperature;BME280_humidity;BME280_pressure;Samples;Min_cycle;Max_cycle;Signal;HPM_P1;HPM_P2
2022/11/10 00:00:29;;;;;;;0.73;0.73;;;10.50;99.90;9.80;96326.00;;;;5095830;28;20202;-56
2022/11/10 00:03:01;;;;;;;1.13;1.13;;;10.50;99.90;9.70;96332.00;;;;5095650;28;20554;-56
2022/11/10 00:05:27;;;;;;;0.70;0.70;;;10.50;99.90;9.70;96307.00;;;;5095757;28;20199;-57
2022/11/10 00:07:54;;;;;;;0.70;0.70;;;10.40;99.90;9.70;96329.00;;;;5095712;28;20237;-57
2022/11/10 00:10:20;;;;;;;0.70;0.70;;;10.40;99.90;9.70;96346.00;;;;5095556;28;20202;-58
2022/11/10 00:12:47;;;;;;;0.70;0.70;;;10.40;99.90;9.70;96343.00;;;;5095521;28;20216;-58
2022/11/10 00:18:02;;;;;;;0.67;0.67;;;10.40;99.90;9.60;96342.00;;;;5095617;28;20199;-57
2022/11/10 00:20:31;;;;;;;0.87;0.87;;;10.40;99.90;9.50;96344.00;;;;5094558;28;20260;-56
2022/11/10 00:22:57;;;;;;;0.60;0.60;;;10.40;99.90;9.60;96343.00;;;;5095443;28;20206;-57
2022/11/10 00:25:24;;;;;;;0.70;0.70;;;10.30;99.90;9.60;96342.00;;;;5095589;28;20199;-56
2022/11/10 00:27:51;;;;;;;0.60;0.60;;;10.30;99.90;9.60;96348.00;;;;5095251;28;20543;-57
2022/11/10 00:30:17;;;;;;;0.90;0.90;;;10.30;99.90;9.50;96344.00;;;;5077574;28;20215;-58
2022/11/10 00:32:46;;;;;;;0.60;0.60;;;10.30;99.90;9.50;96319.00;;;;5094873;28;20619;-58
2022/11/10 00:35:13;;;;;;;0.80;0.80;;;10.30;99.90;9.50;96339.00;;;;5095502;28;20256;-56
2022/11/10 00:37:42;;;;;;;0.77;0.77;;;10.30;99.90;9.40;96341.00;;;;5096311;28;20219;-56
2022/11/10 00:40:10;;;;;;;0.80;0.80;;;10.20;99.90;9.40;96340.00;;;;5078254;28;20225;-60
2022/11/10 00:42:37;;;;;;;0.60;0.60;;;10.20;99.90;9.30;96361.00;;;;5096374;28;20214;-56
2022/11/10 00:45:05;;;;;;;0.70;0.70;;;10.10;99.90;9.30;96355.00;;;;5096683;28;20206;-58
2022/11/10 00:47:34;;;;;;;0.90;0.90;;;10.10;99.90;9.30;96353.00;;;;5095973;28;20222;-60
2022/11/10 00:50:00;;;;;;;1.20;1.20;;;10.00;99.90;9.20;96349.00;;;;5095955;28;20190;-58
2022/11/10 00:52:27;;;;;;;1.73;1.63;;;10.00;99.90;9.20;96361.00;;;;5096078;28;20199;-57
2022/11/10 00:54:56;;;;;;;0.60;0.60;;;10.00;99.90;9.10;96360.00;;;;5094935;28;20291;-57
2022/11/10 00:57:22;;;;;;;0.80;0.80;;;9.90;99.90;9.10;96366.00;;;;5095769;28;20220;-56
2022/11/10 00:59:49;;;;;;;0.70;0.70;;;9.90;99.90;9.10;96361.00;;;;5095162;28;20222;-58
2022/11/10 01:02:15;;;;;;;0.60;0.60;;;9.90;99.90;9.00;96372.00;;;;5096096;28;20199;-58
2022/11/10 01:04:42;;;;;;;0.70;0.70;;;9.80;99.90;9.00;96373.00;;;;5095366;28;20194;-59
2022/11/10 01:07:08;;;;;;;0.60;0.60;;;9.80;99.90;9.00;96381.00;;;;5095662;28;20202;-59
2022/11/10 01:09:36;;;;;;;0.70;0.70;;;9.80;99.90;8.90;96395.00;;;;5095634;28;20194;-59
2022/11/10 01:12:03;;;;;;;0.60;0.60;;;9.80;99.90;8.90;96395.00;;;;5095805;28;20195;-56
2022/11/10 01:14:29;;;;;;;1.03;1.03;;;9.70;99.90;8.80;96382.00;;;;5094554;28;20262;-59
2022/11/10 01:16:56;;;;;;;0.50;0.50;;;9.70;99.90;8.80;96395.00;;;;5077133;28;20194;-56
2022/11/10 01:19:23;;;;;;;0.70;0.70;;;9.60;99.90;8.70;96404.00;;;;5077424;28;20206;-57
2022/11/10 01:21:50;;;;;;;0.73;0.73;;;9.50;99.90;8.60;96408.00;;;;5077832;28;20198;-57
2022/11/10 01:24:20;;;;;;;0.60;0.60;;;9.40;99.90;8.60;96409.00;;;;5077688;28;20236;-57
2022/11/10 01:26:48;;;;;;;0.70;0.70;;;9.40;99.90;8.60;96410.00;;;;5077488;28;20273;-56
2022/11/10 01:29:15;;;;;;;0.50;0.50;;;9.40;99.90;8.50;96408.00;;;;5094160;28;20211;-56
2022/11/10 01:31:41;;;;;;;0.60;0.60;;;9.30;99.90;8.50;96414.00;;;;5094958;28;20631;-55
2022/11/10 01:34:10;;;;;;;0.73;0.73;;;9.30;99.90;8.50;96418.00;;;;5095401;28;20222;-57
2022/11/10 01:36:37;;;;;;;0.93;0.93;;;;;8.50;96428.00;;;;5095280;28;20581;-56
2022/11/10 01:39:06;;;;;;;0.67;0.67;;;9.30;99.90;8.50;96424.00;;;;5095002;28;20253;-57
2022/11/10 01:41:34;;;;;;;0.57;0.57;;;9.30;99.90;8.50;96433.00;;;;5094693;28;20207;-56
2022/11/10 01:44:21;;;;;;;2.17;1.20;;;9.30;99.90;8.50;96430.00;;;;5094487;28;20191;-57
2022/11/10 01:46:48;;;;;;;1.90;1.00;;;9.30;99.90;8.50;96433.00;;;;5077460;28;20221;-60
2022/11/10 01:49:23;;;;;;;1.00;1.00;;;9.30;99.90;8.40;96434.00;;;;5094797;28;20232;-58
2022/11/10 01:51:56;;;;;;;0.50;0.50;;;9.30;99.90;8.40;96432.00;;;;5095027;28;20194;-58
2022/11/10 01:54:27;;;;;;;0.87;0.87;;;9.20;99.90;8.30;96410.00;;;;5093893;28;20540;-57
2022/11/10 01:57:00;;;;;;;4.33;0.90;;;9.20;99.90;8.30;96433.00;;;;5093581;28;20308;-58
2022/11/10 01:59:31;;;;;;;0.67;0.67;;;9.10;99.90;8.40;96433.00;;;;5095040;28;20195;-58
2022/11/10 02:02:09;;;;;;;0.60;0.60;;;9.20;99.90;8.40;96434.00;;;;5095072;28;20492;-59
2022/11/10 02:04:38;;;;;;;2.73;0.90;;;9.20;99.90;8.50;96429.00;;;;5093597;28;20210;-56
2022/11/10 02:07:06;;;;;;;0.50;0.50;;;9.20;99.90;8.40;96428.00;;;;5094083;28;20584;-56
2022/11/10 02:09:32;;;;;;;0.60;0.60;;;9.20;99.90;8.30;96436.00;;;;5094002;28;20528;-57
2022/11/10 02:11:59;;;;;;;0.63;0.63;;;9.10;99.90;8.30;96441.00;;;;5094013;28;20210;-57
2022/11/10 02:14:26;;;;;;;0.57;0.57;;;9.10;99.90;8.30;96441.00;;;;5093845;28;20223;-56
2022/11/10 02:16:52;;;;;;;1.90;1.80;;;9.10;99.90;8.30;96445.00;;;;5092852;28;20202;-56
2022/11/10 02:19:22;;;;;;;0.80;0.80;;;9.10;99.90;8.30;96445.00;;;;5093752;28;20217;-59
2022/11/10 02:21:50;;;;;;;0.70;0.70;;;9.10;99.90;8.20;96450.00;;;;5093630;28;20226;-56
2022/11/10 02:24:17;;;;;;;1.20;1.13;;;9.10;99.90;8.20;96455.00;;;;5092828;28;20202;-58
2022/11/10 02:26:48;;;;;;;0.93;0.93;;;9.10;99.90;8.20;96455.00;;;;5093757;28;20187;-55
2022/11/10 02:29:17;;;;;;;0.60;0.60;;;9.00;99.90;8.20;96466.00;;;;5093845;28;20199;-55
2022/11/10 02:31:46;;;;;;;0.60;0.60;;;8.90;99.90;8.20;96458.00;;;;5093647;28;20221;-57
2022/11/10 02:34:12;;;;;;;0.80;0.80;;;9.00;99.90;8.10;96463.00;;;;5092768;28;20227;-56
2022/11/10 02:36:41;;;;;;;0.60;0.60;;;8.90;99.90;8.10;96460.00;;;;5093615;28;20199;-57
2022/11/10 02:39:08;;;;;;;0.63;0.63;;;8.90;99.90;8.00;96464.00;;;;5093352;28;20214;-56
2022/11/10 02:41:34;;;;;;;0.70;0.70;;;8.80;99.90;7.90;96475.00;;;;5093644;28;20199;-56
2022/11/10 02:44:03;;;;;;;0.60;0.60;;;8.90;99.90;7.80;96476.00;;;;5093437;28;20198;-56
2022/11/10 02:46:32;;;;;;;0.60;0.60;;;8.70;99.90;7.80;96478.00;;;;5093446;28;20204;-56
2022/11/10 02:49:00;;;;;;;1.50;0.97;;;8.60;99.90;7.70;96478.00;;;;5092482;28;20226;-57
2022/11/10 02:51:27;;;;;;;0.80;0.80;;;8.60;99.90;7.70;96480.00;;;;5093333;28;20256;-57
2022/11/10 02:53:53;;;;;;;1.33;1.33;;;8.50;99.90;7.70;96471.00;;;;5093175;28;20517;-58
2022/11/10 02:56:20;;;;;;;0.90;0.90;;;8.50;99.90;7.60;96472.00;;;;5096637;28;20229;-57
2022/11/10 02:58:47;;;;;;;1.07;1.07;;;8.50;99.90;7.60;96469.00;;;;5096702;28;20232;-59
2022/11/10 03:01:13;;;;;;;0.80;0.80;;;8.40;99.90;7.50;96488.00;;;;5095824;28;20207;-58
2022/11/10 03:03:40;;;;;;;1.70;1.60;;;8.40;99.90;7.50;96503.00;;;;5096466;28;20533;-56
2022/11/10 03:06:06;;;;;;;1.77;1.70;;;8.30;99.90;7.20;96502.00;;;;5096668;28;20208;-57
2022/11/10 03:08:33;;;;;;;0.80;0.80;;;8.20;99.90;7.40;96508.00;;;;5096526;28;20820;-57
2022/11/10 03:10:59;;;;;;;0.77;0.77;;;8.20;99.90;7.50;96510.00;;;;5095565;28;20234;-56
2022/11/10 03:13:26;;;;;;;0.50;0.50;;;8.20;99.90;7.60;96510.00;;;;5096388;28;20230;-56
2022/11/10 03:15:53;;;;;;;0.60;0.60;;;8.30;99.90;7.60;96513.00;;;;5095371;28;20230;-56
2022/11/10 03:18:21;;;;;;;0.70;0.70;;;8.40;99.90;7.60;96523.00;;;;5096220;28;20612;-56
2022/11/10 03:20:49;;;;;;;1.00;1.00;;;8.40;99.90;7.50;96521.00;;;;5096406;28;20248;-56
2022/11/10 03:23:17;;;;;;;0.63;0.63;;;8.40;99.90;7.50;96527.00;;;;5096417;28;20191;-57
2022/11/10 03:25:44;;;;;;;0.80;0.80;;;8.30;99.90;7.50;96521.00;;;;5096233;28;20253;-57
2022/11/10 03:28:13;;;;;;;0.77;0.77;;;8.40;99.90;7.50;96522.00;;;;5096301;28;20283;-56
2022/11/10 03:30:41;;;;;;;1.10;1.10;;;8.40;99.90;7.40;96530.00;;;;5096099;28;20869;-57
2022/11/10 03:33:10;;;;;;;1.00;1.00;;;8.40;99.90;7.30;96526.00;;;;5096164;28;20202;-58
2022/11/10 03:35:36;;;;;;;0.90;0.90;;;8.10;99.90;7.20;96534.00;;;;5094947;28;20238;-57
2022/11/10 03:38:05;;;;;;;0.70;0.70;;;8.10;99.90;7.20;96541.00;;;;5096053;28;20210;-58
2022/11/10 03:40:31;;;;;;;1.80;1.27;;;8.10;99.90;7.10;96534.00;;;;5096083;28;20279;-58
2022/11/10 03:42:58;;;;;;;0.80;0.80;;;8.00;99.90;7.10;96540.00;;;;5096075;28;20197;-59
2022/11/10 03:45:24;;;;;;;3.60;0.90;;;7.90;99.90;7.10;96513.00;;;;5096033;28;20202;-60
2022/11/10 03:47:52;;;;;;;1.10;1.10;;;7.90;99.90;7.10;96549.00;;;;5096194;28;20215;-56
2022/11/10 03:50:20;;;;;;;1.57;1.47;;;7.90;99.90;6.90;96539.00;;;;5096178;28;20618;-58
2022/11/10 03:52:47;;;;;;;1.50;0.90;;;7.80;99.90;6.90;96559.00;;;;5096024;28;20229;-58
2022/11/10 03:55:17;;;;;;;2.70;2.43;;;7.70;99.90;6.70;96558.00;;;;5095891;28;20215;-57
2022/11/10 03:57:44;;;;;;;0.83;0.83;;;7.60;99.90;6.80;96563.00;;;;5095941;28;20210;-60
2022/11/10 04:00:12;;;;;;;1.87;1.77;;;7.60;99.90;6.70;96561.00;;;;5078149;28;20202;-57
2022/11/10 04:02:39;;;;;;;1.67;1.40;;;7.50;99.90;6.70;96551.00;;;;5095701;28;20210;-56
2022/11/10 04:10:42;;;;;;;1.07;1.07;;;7.60;99.90;6.80;96574.00;;;;5095563;28;20803;-56
2022/11/10 04:15:55;;;;;;;1.07;1.07;;;7.70;99.90;6.80;96560.00;;;;5077528;28;20238;-56
2022/11/10 04:18:25;;;;;;;1.37;1.10;;;7.60;99.90;6.70;96568.00;;;;5095612;28;20206;-56
2022/11/10 04:20:56;;;;;;;1.43;1.40;;;7.60;99.90;6.60;96579.00;;;;5095401;28;20222;-56
2022/11/10 04:23:27;;;;;;;1.00;1.00;;;7.50;99.90;6.50;96588.00;;;;5095334;28;20659;-56
2022/11/10 04:28:47;;;;;;;1.17;1.10;;;7.40;99.90;6.60;96597.00;;;;5077504;28;20538;-57
2022/11/10 04:31:15;;;;;;;4.17;1.93;;;7.40;99.90;6.60;96610.00;;;;5095078;28;20224;-59
2022/11/10 04:33:42;;;;;;;1.73;1.63;;;7.40;99.90;6.60;96607.00;;;;5077525;28;20206;-57
2022/11/10 04:36:13;;;;;;;0.90;0.90;;;7.40;99.90;6.60;96617.00;;;;5095218;28;20615;-59
2022/11/10 04:38:39;;;;;;;0.80;0.80;;;7.50;99.90;6.70;96617.00;;;;5094151;28;20597;-58
2022/11/10 04:41:08;;;;;;;0.93;0.93;;;7.50;99.90;6.70;96636.00;;;;5095025;28;20669;-59
2022/11/10 04:43:35;;;;;;;0.60;0.60;;;7.60;99.90;6.70;96627.00;;;;5094887;28;20227;-57
2022/11/10 04:46:03;;;;;;;0.90;0.90;;;7.50;99.90;6.70;96619.00;;;;5094875;28;20583;-57
2022/11/10 04:48:37;;;;;;;0.60;0.60;;;7.50;99.90;6.70;96635.00;;;;5094774;28;20261;-57
2022/11/10 04:51:05;;;;;;;0.60;0.60;;;7.60;99.90;6.70;96644.00;;;;5077106;28;20234;-55
2022/11/10 04:53:33;;;;;;;1.33;1.23;;;7.50;99.90;6.70;96650.00;;;;5094798;28;20194;-56
2022/11/10 04:55:59;;;;;;;0.90;0.90;;;7.50;99.90;6.70;96646.00;;;;5094729;28;20282;-57
2022/11/10 04:58:26;;;;;;;0.50;0.50;;;7.50;99.90;6.80;96655.00;;;;5094711;28;20211;-57
2022/11/10 05:00:54;;;;;;;0.63;0.63;;;7.60;99.90;6.80;96658.00;;;;5094646;28;20301;-56
2022/11/10 05:03:21;;;;;;;0.50;0.50;;;7.60;99.90;6.80;96660.00;;;;5094740;28;20190;-56
2022/11/10 05:05:48;;;;;;;0.60;0.60;;;7.60;99.90;6.80;96662.00;;;;5094489;28;20225;-56
2022/11/10 05:08:17;;;;;;;0.77;0.77;;;7.60;99.90;6.70;96659.00;;;;5076704;28;20225;-57
2022/11/10 05:10:44;;;;;;;0.70;0.70;;;7.60;99.90;6.80;96656.00;;;;5094479;28;20525;-58
2022/11/10 05:13:13;;;;;;;0.60;0.60;;;7.60;99.90;6.80;96659.00;;;;5094576;28;20649;-58
2022/11/10 05:15:41;;;;;;;0.80;0.80;;;7.60;99.90;6.60;96663.00;;;;5094352;28;20229;-57
2022/11/10 05:18:07;;;;;;;0.50;0.50;;;7.50;99.90;6.30;96661.00;;;;5093252;28;20533;-56
2022/11/10 05:20:34;;;;;;;0.60;0.60;;;7.30;99.90;6.30;96666.00;;;;5094469;28;20197;-57
2022/11/10 05:25:49;;;;;;;0.70;0.70;;;;;6.20;96674.00;;;;5094416;28;20272;-59
2022/11/10 05:28:15;;;;;;;0.50;0.50;;;7.10;99.90;6.30;96678.00;;;;5076627;28;20237;-56
2022/11/10 05:30:42;;;;;;;0.93;0.93;;;7.10;99.90;6.30;96679.00;;;;5094360;28;20212;-56
2022/11/10 05:33:11;;;;;;;0.50;0.50;;;7.10;99.90;6.30;96683.00;;;;5094152;28;20244;-57
2022/11/10 05:35:41;;;;;;;0.60;0.60;;;7.10;99.90;6.30;96678.00;;;;5094050;28;20222;-56
2022/11/10 05:38:07;;;;;;;0.80;0.80;;;7.10;99.90;6.30;96682.00;;;;5094083;28;20702;-58
2022/11/10 05:40:34;;;;;;;2.27;1.97;;;7.20;99.90;6.30;96678.00;;;;5094113;28;20213;-56
2022/11/10 05:43:02;;;;;;;2.30;2.10;;;7.10;99.90;6.60;96694.00;;;;5094131;28;20728;-57
2022/11/10 05:45:29;;;;;;;3.87;2.00;;;7.30;99.90;6.40;96686.00;;;;5094081;28;20209;-57
2022/11/10 05:47:55;;;;;;;2.00;1.90;;;7.30;99.90;6.40;96686.00;;;;5094207;28;20216;-58
2022/11/10 05:50:24;;;;;;;0.83;0.83;;;7.20;99.90;6.40;96683.00;;;;5094078;28;20501;-58
2022/11/10 05:52:53;;;;;;;1.00;1.00;;;7.20;99.90;6.50;96673.00;;;;5076103;28;20268;-58
2022/11/10 05:55:23;;;;;;;0.83;0.83;;;7.30;99.90;6.40;96694.00;;;;5093995;28;20249;-57
2022/11/10 05:57:53;;;;;;;2.47;2.37;;;7.30;99.90;6.50;96701.00;;;;5093974;28;20206;-58
2022/11/10 06:00:22;;;;;;;1.73;1.67;;;7.30;99.90;6.50;96702.00;;;;5093871;28;20203;-56
2022/11/10 06:03:01;;;;;;;0.90;0.90;;;7.30;99.90;6.50;96707.00;;;;5094050;28;20247;-58
2022/11/10 06:05:29;;;;;;;1.27;1.27;;;7.30;99.90;6.50;96703.00;;;;5094115;28;20712;-59
2022/11/10 06:07:58;;;;;;;2.47;2.27;;;7.30;99.90;6.50;96710.00;;;;5093793;28;20212;-56
2022/11/10 06:10:27;;;;;;;1.27;1.27;;;7.30;99.90;6.40;96717.00;;;;5093893;28;20194;-57
2022/11/10 06:12:54;;;;;;;1.37;1.30;;;7.20;99.90;6.40;96701.00;;;;5093765;28;20277;-56
2022/11/10 06:15:22;;;;;;;0.93;0.93;;;7.30;99.90;6.30;96729.00;;;;5093740;28;20216;-57
2022/11/10 06:17:49;;;;;;;0.90;0.90;;;7.20;99.90;6.20;96742.00;;;;5093539;28;20213;-61
2022/11/10 06:20:16;;;;;;;2.27;1.50;;;7.10;99.90;6.20;96734.00;;;;5093693;28;20630;-57
2022/11/10 06:22:58;;;;;;;1.03;0.97;;;7.00;99.90;6.20;96746.00;;;;5093806;28;20214;-56
2022/11/10 06:25:25;;;;;;;2.13;1.63;;;7.00;99.90;6.20;96741.00;;;;5093659;28;20198;-56
2022/11/10 06:27:52;;;;;;;1.17;1.17;;;7.00;99.90;6.20;96746.00;;;;5093641;28;20198;-56
2022/11/10 06:30:19;;;;;;;0.90;0.90;;;;;6.20;96747.00;;;;5095406;28;20229;-57
2022/11/10 06:32:46;;;;;;;1.27;1.27;;;7.10;99.90;6.20;96752.00;;;;5097215;28;20247;-57
2022/11/10 06:35:13;;;;;;;2.63;0.73;;;7.00;99.90;6.10;96772.00;;;;5096092;28;20244;-58
2022/11/10 06:37:39;;;;;;;1.50;1.47;;;7.00;99.90;6.10;96780.00;;;;5097043;28;20263;-58
2022/11/10 06:40:08;;;;;;;0.70;0.70;;;7.00;99.90;6.00;96788.00;;;;5097057;28;20224;-57
2022/11/10 06:42:35;;;;;;;3.87;2.50;;;6.80;99.90;6.00;96805.00;;;;5096944;28;20209;-57
2022/11/10 06:45:03;;;;;;;2.47;2.33;;;6.90;99.90;6.20;96808.00;;;;5096917;28;20225;-57
2022/11/10 06:47:29;;;;;;;0.77;0.77;;;6.90;99.90;6.20;96797.00;;;;5096932;28;20662;-57
2022/11/10 06:49:56;;;;;;;0.90;0.90;;;7.00;99.90;6.00;96805.00;;;;5096702;28;20231;-57
2022/11/10 06:52:23;;;;;;;0.70;0.70;;;6.90;99.90;5.80;96808.00;;;;5095873;28;20549;-57
2022/11/10 06:54:49;;;;;;;0.90;0.90;;;6.80;99.90;5.90;96809.00;;;;5078807;28;20233;-56
2022/11/10 06:57:16;;;;;;;0.60;0.60;;;;;6.00;96830.00;;;;5096625;28;20209;-57
2022/11/10 06:59:42;;;;;;;0.80;0.80;;;6.80;99.90;6.10;96840.00;;;;5096655;28;20221;-57
2022/11/10 07:02:14;;;;;;;0.67;0.67;;;6.90;99.90;6.10;96848.00;;;;5096657;28;20207;-57
2022/11/10 07:04:42;;;;;;;0.80;0.80;;;6.90;99.90;6.10;96844.00;;;;5096497;28;20223;-57
2022/11/10 07:07:10;;;;;;;0.60;0.60;;;6.90;99.90;6.10;96845.00;;;;5095353;28;20217;-57
2022/11/10 07:09:37;;;;;;;0.97;0.70;;;6.90;99.90;6.10;96842.00;;;;5096498;28;20715;-57
2022/11/10 07:12:05;;;;;;;0.57;0.57;;;6.90;99.90;6.10;96854.00;;;;5096503;28;20277;-58
2022/11/10 07:14:31;;;;;;;0.70;0.70;;;6.90;99.90;5.90;96860.00;;;;5096291;28;20233;-57
2022/11/10 07:17:00;;;;;;;0.70;0.70;;;6.80;99.90;5.90;96859.00;;;;5096317;28;20191;-59
2022/11/10 07:19:26;;;;;;;0.60;0.60;;;6.80;99.90;6.00;96855.00;;;;5095420;28;20213;-57
2022/11/10 07:21:53;;;;;;;0.70;0.70;;;6.90;99.90;6.20;96854.00;;;;5095364;28;20643;-57
2022/11/10 07:24:20;;;;;;;1.10;1.10;;;6.90;99.90;6.10;96859.00;;;;5096347;28;20197;-59
2022/11/10 07:26:46;;;;;;;1.13;1.13;;;7.00;99.90;6.20;96860.00;;;;5096231;28;20207;-57
2022/11/10 07:29:15;;;;;;;0.70;0.70;;;7.00;99.90;6.20;96868.00;;;;5096221;28;20277;-60
2022/11/10 07:31:43;;;;;;;1.30;1.30;;;7.10;99.90;6.20;96875.00;;;;5096239;28;20205;-59
2022/11/10 07:34:11;;;;;;;0.83;0.83;;;7.00;99.90;6.20;96880.00;;;;5096053;28;20267;-57
2022/11/10 07:36:38;;;;;;;1.53;1.43;;;7.00;99.90;6.20;96883.00;;;;5096265;28;20266;-64
2022/11/10 07:39:06;;;;;;;1.03;1.03;;;7.10;99.90;6.30;96888.00;;;;5096529;28;20198;-64
2022/11/10 07:41:33;;;;;;;0.70;0.70;;;7.10;99.90;6.30;96882.00;;;;5095208;28;20225;-57
2022/11/10 07:43:59;;;;;;;0.60;0.60;;;7.10;99.90;6.30;96886.00;;;;5095998;28;20502;-58
2022/11/10 07:46:28;;;;;;;1.07;1.07;;;7.10;99.90;6.40;96898.00;;;;5095739;28;20622;-58
2022/11/10 07:48:55;;;;;;;0.90;0.90;;;7.10;99.90;6.40;96892.00;;;;5078273;28;20205;-58
2022/11/10 07:51:21;;;;;;;1.00;1.00;;;7.20;99.70;6.30;96904.00;;;;5094959;28;20225;-58
2022/11/10 07:53:48;;;;;;;1.33;1.33;;;7.10;99.90;6.50;96907.00;;;;5095997;28;20261;-56
2022/11/10 07:56:16;;;;;;;1.20;0.93;;;7.20;99.90;6.60;96914.00;;;;5095767;28;20235;-58
2022/11/10 07:58:43;;;;;;;0.60;0.60;;;7.30;99.90;6.70;96911.00;;;;5095938;28;20229;-57
2022/11/10 08:01:10;;;;;;;1.37;1.27;;;7.40;99.90;6.80;96911.00;;;;5095577;28;20225;-58
2022/11/10 08:03:36;;;;;;;0.63;0.63;;;7.50;99.90;7.00;96925.00;;;;5096117;28;20660;-58
2022/11/10 08:06:03;;;;;;;2.80;0.80;;;7.70;99.90;7.20;96926.00;;;;5095798;28;20287;-57
2022/11/10 08:08:30;;;;;;;0.80;0.80;;;7.90;99.90;7.30;96931.00;;;;5095850;28;20282;-57
2022/11/10 08:10:57;;;;;;;0.70;0.70;;;8.00;99.70;7.40;96934.00;;;;5095723;28;20308;-57
2022/11/10 08:13:24;;;;;;;0.70;0.70;;;8.00;98.40;7.20;96925.00;;;;5095356;28;20230;-57
2022/11/10 08:15:51;;;;;;;1.03;1.03;;;8.00;96.30;7.30;96933.00;;;;5095540;28;20646;-57
2022/11/10 08:18:20;;;;;;;0.50;0.50;;;8.00;98.40;7.40;96933.00;;;;5095581;28;20241;-57
2022/11/10 08:20:47;;;;;;;0.80;0.80;;;8.10;97.60;7.40;96930.00;;;;5095874;28;20286;-57
2022/11/10 08:23:15;;;;;;;1.10;1.10;;;8.10;97.60;7.40;96945.00;;;;5095590;28;20343;-57
2022/11/10 08:25:41;;;;;;;0.63;0.63;;;8.10;97.20;7.50;96942.00;;;;5095514;28;20194;-57
2022/11/10 08:28:11;;;;;;;0.87;0.87;;;8.20;97.70;7.60;96941.00;;;;5095336;28;20285;-58
2022/11/10 08:30:41;;;;;;;1.10;1.10;;;8.30;97.70;7.60;96952.00;;;;5095322;28;20226;-62
2022/11/10 08:33:12;;;;;;;1.20;1.20;;;8.40;97.20;7.60;96938.00;;;;5095775;28;20202;-58
2022/11/10 08:35:42;;;;;;;1.10;1.10;;;8.40;97.40;7.70;96929.00;;;;5095262;28;20288;-57
2022/11/10 08:38:11;;;;;;;1.00;1.00;;;8.30;97.40;7.80;96945.00;;;;5095349;28;20539;-59
2022/11/10 08:40:39;;;;;;;1.47;1.37;;;8.50;97.80;7.80;96948.00;;;;5095365;28;20340;-57
2022/11/10 08:43:06;;;;;;;0.90;0.90;;;8.50;96.70;7.70;96949.00;;;;5095350;28;20191;-56
2022/11/10 08:45:34;;;;;;;0.70;0.70;;;8.40;97.20;7.80;96953.00;;;;5095215;28;20229;-56
2022/11/10 08:48:04;;;;;;;0.60;0.60;;;8.50;97.40;8.00;96950.00;;;;5095056;28;20210;-62
2022/11/10 08:50:32;;;;;;;0.60;0.60;;;;;8.20;96955.00;;;;5094369;28;20256;-57
2022/11/10 08:53:01;;;;;;;0.70;0.70;;;8.80;96.70;8.30;96956.00;;;;5076956;28;20237;-58
2022/11/10 08:55:28;;;;;;;0.70;0.70;;;8.90;97.70;8.50;96969.00;;;;5095100;28;20277;-57
2022/11/10 08:57:58;;;;;;;1.03;1.03;;;9.10;97.40;8.70;96966.00;;;;5095013;28;20285;-57
2022/11/10 09:00:27;;;;;;;0.87;0.87;;;;;9.10;96964.00;;;;5094989;28;20205;-57
2022/11/10 09:02:56;;;;;;;0.60;0.60;;;9.60;95.80;9.30;96962.00;;;;5094964;28;20645;-57
2022/11/10 09:05:23;;;;;;;0.60;0.60;;;9.80;94.70;9.40;96957.00;;;;5077086;28;20239;-57
2022/11/10 09:07:52;;;;;;;1.00;1.00;;;9.90;95.10;9.40;96959.00;;;;5094880;28;20623;-56
2022/11/10 09:10:19;;;;;;;0.70;0.70;;;10.00;95.50;9.60;96976.00;;;;5094720;28;20557;-57
2022/11/10 09:12:46;;;;;;;0.97;0.97;;;;;9.80;96975.00;;;;5094670;28;20214;-55
2022/11/10 09:15:13;;;;;;;1.30;1.20;;;10.30;94.10;10.00;96964.00;;;;5094651;28;20234;-55
2022/11/10 09:17:42;;;;;;;0.70;0.70;;;10.50;94.40;9.90;96975.00;;;;5094667;28;20195;-56
2022/11/10 09:20:11;;;;;;;0.70;0.70;;;10.50;93.50;10.00;96982.00;;;;5094594;28;20215;-58
2022/11/10 09:22:38;;;;;;;1.27;1.03;;;10.60;94.00;10.00;96981.00;;;;5076707;28;20275;-56
2022/11/10 09:25:06;;;;;;;0.70;0.70;;;;;10.10;96987.00;;;;5094666;28;20209;-57
2022/11/10 09:27:36;;;;;;;1.10;1.10;;;;;10.10;96991.00;;;;5094500;28;20295;-57
2022/11/10 09:30:06;;;;;;;0.57;0.57;;;;;10.30;96992.00;;;;5094589;28;20597;-57
2022/11/10 09:32:33;;;;;;;0.60;0.60;;;;;10.20;97002.00;;;;5094495;28;20205;-56
2022/11/10 09:35:01;;;;;;;0.93;0.93;;;;;10.40;97003.00;;;;5094315;28;20670;-56
2022/11/10 09:37:28;;;;;;;1.40;1.37;;;;;10.40;97017.00;;;;5094424;28;20197;-56
2022/11/10 09:39:55;;;;;;;0.80;0.80;;;;;10.30;97004.00;;;;5094467;28;20647;-56
2022/11/10 09:42:33;;;;;;;0.67;0.67;;;;;10.30;97011.00;;;;5076592;28;20488;-58
2022/11/10 09:45:05;;;;;;;0.70;0.70;;;;;10.30;97013.00;;;;5094280;28;20222;-58
2022/11/10 09:47:40;;;;;;;0.47;0.47;;;;;10.30;97016.00;;;;5094275;28;20209;-56
2022/11/10 09:50:14;;;;;;;0.73;0.73;;;;;10.30;97021.00;;;;5094346;28;20214;-58
2022/11/10 09:52:42;;;;;;;0.90;0.80;;;;;10.40;97035.00;;;;5094245;28;20259;-56
2022/11/10 09:55:23;;;;;;;0.70;0.70;;;;;10.50;97037.00;;;;5094103;28;20218;-58
2022/11/10 09:57:54;;;;;;;0.73;0.73;;;;;10.40;97041.00;;;;5094309;28;20222;-57
2022/11/10 10:00:21;;;;;;;0.60;0.60;;;;;10.60;97039.00;;;;5076361;28;20572;-55
2022/11/10 10:02:54;;;;;;;0.70;0.70;;;;;10.70;97044.00;;;;5094033;28;20734;-55
2022/11/10 10:05:45;;;;;;;0.50;0.50;;;;;10.60;97037.00;;;;5093197;28;20258;-57
2022/11/10 10:08:24;;;;;;;0.60;0.60;;;;;10.80;97042.00;;;;5093818;28;20551;-56
2022/11/10 10:11:06;;;;;;;0.60;0.60;;;;;11.00;97046.00;;;;5093809;28;20209;-60
2022/11/10 10:14:05;;;;;;;0.70;0.70;;;;;11.20;97038.00;;;;5075836;28;20257;-58
2022/11/10 10:16:39;;;;;;;0.60;0.60;;;;;11.40;97033.00;;;;5093809;28;20309;-57
2022/11/10 10:19:19;;;;;;;2.00;1.37;;;;;11.60;97033.00;;;;5093734;28;20264;-57
2022/11/10 10:21:58;;;;;;;0.90;0.90;;;;;11.60;97039.00;;;;5075959;28;20206;-58
2022/11/10 10:24:29;;;;;;;0.60;0.60;;;;;11.50;97040.00;;;;5076108;28;20532;-56
2022/11/10 10:26:59;;;;;;;0.70;0.70;;;;;11.70;97038.00;;;;5093728;28;20198;-56
2022/11/10 10:29:33;;;;;;;1.60;1.07;;;;;11.70;97036.00;;;;5093782;28;20183;-57
2022/11/10 10:32:03;;;;;;;1.30;1.30;;;;;11.80;97044.00;;;;5093634;28;20363;-58
2022/11/10 10:34:33;;;;;;;0.60;0.60;;;;;11.80;97039.00;;;;5093487;28;20201;-57
2022/11/10 10:37:00;;;;;;;0.50;0.50;;;;;12.10;97044.00;;;;5093724;28;20296;-57
2022/11/10 10:39:30;;;;;;;0.83;0.83;;;;;12.30;97044.00;;;;5093398;28;20195;-56
2022/11/10 10:41:57;;;;;;;0.60;0.60;;;;;12.10;97030.00;;;;5093343;28;20187;-55
2022/11/10 10:44:24;;;;;;;0.70;0.70;;;;;11.90;97026.00;;;;5093522;28;20207;-56
2022/11/10 10:46:56;;;;;;;0.60;0.60;;;;;12.50;97020.00;;;;5075542;28;20293;-60
2022/11/10 10:49:25;;;;;;;0.97;0.97;;;;;12.70;97030.00;;;;5093369;28;20221;-65
2022/11/10 10:52:03;;;;;;;0.60;0.60;;;13.30;85.50;13.00;97037.00;;;;5093504;28;20249;-58
2022/11/10 10:54:32;;;;;;;0.57;0.57;;;13.30;85.60;13.30;97016.00;;;;5093472;28;20583;-57
2022/11/10 10:57:04;;;;;;;1.03;1.03;;;13.60;83.90;13.20;97012.00;;;;5093376;28;20199;-56
2022/11/10 10:59:32;;;;;;;0.60;0.60;;;13.60;81.50;13.50;96997.00;;;;5093029;28;20233;-60
2022/11/10 11:02:00;;;;;;;0.60;0.60;;;13.80;81.50;13.60;97013.00;;;;5075305;28;20214;-58
2022/11/10 11:04:33;;;;;;;0.93;0.93;;;;;14.00;97015.00;;;;5093139;28;20199;-56
2022/11/10 11:07:02;;;;;;;0.60;0.60;;;14.30;78.00;14.10;97008.00;;;;5093270;28;20195;-56
2022/11/10 11:09:41;;;;;;;0.73;0.73;;;14.40;77.60;14.20;97000.00;;;;5093228;28;20199;-56
2022/11/10 11:12:11;;;;;;;0.60;0.60;;;14.40;76.10;14.50;97027.00;;;;5093130;28;20310;-56
2022/11/10 11:14:38;;;;;;;2.07;1.10;;;14.60;76.40;14.80;97031.00;;;;5093063;28;20195;-56
2022/11/10 11:17:18;;;;;;;0.50;0.50;;;14.90;75.00;15.10;97030.00;;;;5093774;28;20335;-56
2022/11/10 11:19:45;;;;;;;0.80;0.80;;;15.10;73.70;15.50;97005.00;;;;5096601;28;20647;-56
2022/11/10 11:22:36;;;;;;;0.77;0.77;;;15.50;71.70;16.00;97017.00;;;;5096335;28;20195;-57
2022/11/10 11:25:17;;;;;;;1.70;0.93;;;15.80;69.60;16.00;97009.00;;;;5096420;28;20202;-56
2022/11/10 11:27:55;;;;;;;0.60;0.60;;;16.10;63.40;15.90;97014.00;;;;5096222;28;20267;-57
2022/11/10 11:30:23;;;;;;;1.90;1.50;;;16.00;60.10;16.20;97018.00;;;;5096343;28;20209;-57
2022/11/10 11:33:12;;;;;;;0.60;0.60;;;16.30;56.40;16.70;97016.00;;;;5096347;28;20241;-59
2022/11/10 11:35:49;;;;;;;1.03;0.70;;;16.60;54.80;17.20;97017.00;;;;5096174;28;20226;-57
2022/11/10 11:38:26;;;;;;;0.40;0.40;;;17.00;52.10;17.60;97000.00;;;;5096567;28;20179;-57
2022/11/10 11:41:11;;;;;;;0.70;0.70;;;17.30;51.70;17.30;97007.00;;;;5095501;28;20230;-58